Winnemucca, NV

10:30 PM PDT on September 14, 2014 (GMT -0700)
Winnemucca Municipal | Change Station
CLOSE
Current Station
Airport
Location: Winnemucca,
Elevation: 4311 ft
Nearby Weather Stations

Elev 4311 ft 40.90 °N, 117.81 °W | Updated 34 minutes ago

Clear
Clear
63 °F
Feels Like 63 °F
N
6
Wind Variable Wind from ESE

Today
High -- | Low -- °F
--% Chance of Precip.
Yesterday
High -- | Low -- °F
Precip. -- in
6:30 AM 7:01 PM
Waning Gibbous, 59% visible
Pressure 30.02 in
Visibility 10.0 miles
Clouds Clear
Dew Point 30 °F
Humidity 30%
Rainfall 0.00 in
Snow Depth 0 in , 0 in , 0 in
UV 0 out of 12
Pollen 7.10 out of 12
Air Quality Not available.
Flu Activity Not available.
METAR KWMC 150456Z AUTO 12005KT 10SM CLR 17/M01 A3002

More Conditions Fewer Conditions

Pressure 30.02 in
Visibility 10.0 miles
Clouds Clear
Dew Point 30 °F
Humidity 30%
Rainfall 0.00 in
Snow Depth 0 in , 0 in , 0 in
UV 0 out of 12
Pollen 7.10 out of 12
Air Quality Not available.
Flu Activity Not available.
METAR KWMC 150456Z AUTO 12005KT 10SM CLR 17/M01 A3002

More Conditions Fewer Conditions

10-Day Weather Forecast

Almanac

Astronomy

Sep. 14, 2014 Rise Set
Actual Time 6:30 AM PDT 7:01 PM PDT
Civil Twilight 6:03 AM PDT 7:29 PM PDT
Nautical Twilight 5:30 AM PDT 8:02 PM PDT
Astronomical Twilight 4:56 AM PDT 8:35 PM PDT
Moon 10:55 PM PDT (9/14) 12:44 PM PDT (9/14)
Length of Visible Light 13h 26m
Length of Day
12h 31m
Tomorrow will be 2m 42s shorter.
Waning Gibbous, 59% of the Moon is Illuminated
Sep 15
Waning Gibbous
Sep 15
Last Quarter
Sep 24
New
Oct 1
First Quarter
Oct 8
Full

Yesterday's Extremes

State Highs State Lows

Community

WunderPhotos

Upload Photos

1,753,415 photos uploaded!

Nearby

Snow Depth

Station Depth Elevation
Dorsey Basin 0 in 8100 ft
Lewis Peak 0 in 7400 ft
Green Mountain 0 in 8000 ft
Taylor Canyon 1 in 6200 ft
Fawn Creek 0 in 7000 ft

Earthquake Activity

City Distance Mag. Time & Date
Lakeview, Oregon 107 miles 3.3 9:20 PM PDT
2014-09-14
Lakeview, Oregon 108 miles 2.8 7:48 PM PDT
2014-09-14
Sun Valley, Nevada 146 miles 2.7 1:02 PM PDT
2014-09-11
Lakeview, Oregon 102 miles 2.5 12:34 PM PDT
2014-09-11
Minimum magnitude displayed is 2.5.

Coastal Water Temperatures

Place Temperature
No Stations Reporting

Nearby Weather Stations